createdAt,value
2019-01-12T00:00:33.444Z,5.72
2019-01-12T00:03:02.020Z,5.72
2019-01-12T00:05:30.765Z,5.72
2019-01-12T00:07:59.549Z,5.72
2019-01-12T00:10:27.958Z,5.70
2019-01-12T00:12:56.637Z,5.71
2019-01-12T00:15:25.414Z,5.70
2019-01-12T00:17:54.137Z,5.71
2019-01-12T00:20:22.576Z,5.71
2019-01-12T00:22:51.075Z,5.71
2019-01-12T00:25:19.925Z,5.70
2019-01-12T00:27:48.722Z,5.70
2019-01-12T00:30:17.566Z,5.70
2019-01-12T00:32:46.326Z,5.68
2019-01-12T00:35:15.028Z,5.68
2019-01-12T00:37:43.809Z,5.68
2019-01-12T00:40:12.724Z,5.68
2019-01-12T00:42:41.412Z,5.68
2019-01-12T00:45:12.728Z,5.66
2019-01-12T00:47:41.423Z,5.66
2019-01-12T00:50:13.434Z,5.64
2019-01-12T00:52:42.174Z,5.63
2019-01-12T00:55:10.946Z,5.62
2019-01-12T00:57:39.793Z,5.61
2019-01-12T01:00:14.265Z,5.60
2019-01-12T01:02:43.172Z,5.59
2019-01-12T01:05:12.079Z,5.58
2019-01-12T01:07:40.944Z,5.58
2019-01-12T01:10:12.651Z,5.57
2019-01-12T01:12:41.353Z,5.56
2019-01-12T01:15:11.680Z,5.55
2019-01-12T01:17:40.168Z,5.55
2019-01-12T01:20:11.798Z,5.56
2019-01-12T01:22:40.236Z,5.56
2019-01-12T01:25:10.095Z,5.55
2019-01-12T01:27:38.923Z,5.54
2019-01-12T01:30:13.820Z,5.53
2019-01-12T01:32:42.567Z,5.54
2019-01-12T01:35:11.703Z,5.53
2019-01-12T01:37:40.385Z,5.54
2019-01-12T01:40:11.828Z,5.53
2019-01-12T01:42:40.571Z,5.53
2019-01-12T01:45:11.604Z,5.54
2019-01-12T01:47:40.317Z,5.53
2019-01-12T01:50:11.144Z,5.49
2019-01-12T01:52:39.876Z,5.52
2019-01-12T01:55:10.414Z,5.53
2019-01-12T01:57:39.120Z,5.54
2019-01-12T02:00:13.460Z,5.54
2019-01-12T02:02:41.950Z,5.53
2019-01-12T02:05:10.496Z,5.53
2019-01-12T02:07:39.345Z,5.53
2019-01-12T02:10:10.822Z,5.54
2019-01-12T02:12:39.544Z,5.52
2019-01-12T02:15:11.269Z,5.53
2019-01-12T02:17:39.962Z,5.52
2019-01-12T02:20:10.936Z,5.51
2019-01-12T02:22:39.355Z,5.50
2019-01-12T02:25:10.379Z,5.50
2019-01-12T02:27:38.861Z,5.49
2019-01-12T02:30:22.131Z,5.49
2019-01-12T02:32:50.925Z,4.71
2019-01-12T02:35:19.888Z,5.48
2019-01-12T02:37:48.559Z,5.49
2019-01-12T02:40:17.322Z,5.49
2019-01-12T02:42:45.745Z,5.48
2019-01-12T02:45:14.680Z,5.48
2019-01-12T02:47:43.176Z,5.46
2019-01-12T02:50:13.705Z,5.47
2019-01-12T02:52:42.464Z,5.47
2019-01-12T02:55:11.968Z,5.47
2019-01-12T02:57:40.478Z,5.45
2019-01-12T03:00:12.548Z,5.45
2019-01-12T03:02:40.980Z,5.45
2019-01-12T03:05:09.903Z,5.45
2019-01-12T03:07:38.649Z,5.45
2019-01-12T03:10:10.585Z,5.44
2019-01-12T03:12:39.012Z,5.43
2019-01-12T03:15:11.000Z,5.43
2019-01-12T03:17:39.800Z,4.82
2019-01-12T03:20:11.464Z,5.43
2019-01-12T03:22:39.921Z,5.42
2019-01-12T03:25:17.228Z,5.43
2019-01-12T03:27:39.234Z,5.43
2019-01-12T03:30:10.981Z,5.43
2019-01-12T03:32:39.668Z,5.44
2019-01-12T03:35:08.140Z,5.42
2019-01-12T03:37:36.920Z,5.42
2019-01-12T03:40:08.689Z,5.41
2019-01-12T03:42:37.423Z,5.40
2019-01-12T03:45:08.539Z,5.41
2019-01-12T03:47:37.252Z,5.40
2019-01-12T03:50:08.888Z,5.40
2019-01-12T03:52:37.844Z,5.39
2019-01-12T03:55:06.319Z,5.38
2019-01-12T03:57:35.098Z,5.39
2019-01-12T04:00:05.302Z,5.39
2019-01-12T04:02:33.987Z,5.38
2019-01-12T04:05:02.670Z,5.36
2019-01-12T04:07:31.358Z,5.36
2019-01-12T04:10:00.131Z,5.35
2019-01-12T04:12:28.820Z,5.36
2019-01-12T04:14:57.609Z,5.33
2019-01-12T04:17:26.338Z,5.33
2019-01-12T04:19:55.097Z,5.32
2019-01-12T04:22:23.792Z,5.32
2019-01-12T04:24:52.226Z,5.32
2019-01-12T04:27:22.212Z,5.31
2019-01-12T04:29:50.893Z,5.31
2019-01-12T04:32:19.808Z,5.29
2019-01-12T04:34:48.511Z,5.29
2019-01-12T04:37:17.196Z,5.28
2019-01-12T04:39:45.898Z,5.29
2019-01-12T04:42:14.680Z,5.29
2019-01-12T04:44:43.364Z,5.26
2019-01-12T04:47:12.150Z,5.25
2019-01-12T04:49:40.928Z,5.25
2019-01-12T04:52:09.637Z,5.25
2019-01-12T04:54:38.308Z,5.25
2019-01-12T04:57:06.994Z,3.67
2019-01-12T04:59:35.447Z,5.26
2019-01-12T05:02:04.197Z,5.25
2019-01-12T05:04:32.899Z,5.25
2019-01-12T05:07:01.449Z,5.25
2019-01-12T05:09:30.151Z,5.24
2019-01-12T05:11:58.565Z,5.25
2019-01-12T05:14:26.966Z,5.23
2019-01-12T05:16:55.653Z,5.23
2019-01-12T05:19:24.440Z,5.23
2019-01-12T05:21:52.860Z,5.23
2019-01-12T05:24:21.579Z,5.14
2019-01-12T05:26:50.005Z,5.20
2019-01-12T05:29:18.432Z,5.20
2019-01-12T05:31:47.098Z,5.19
2019-01-12T05:34:15.847Z,5.18
2019-01-12T05:36:44.561Z,5.17
2019-01-12T05:39:12.959Z,5.18
2019-01-12T05:41:41.642Z,5.17
2019-01-12T05:44:10.053Z,5.19
2019-01-12T05:46:38.733Z,5.17
2019-01-12T05:49:07.532Z,5.16
2019-01-12T05:51:36.015Z,5.15
2019-01-12T05:54:04.961Z,5.15
2019-01-12T05:56:33.390Z,5.15
2019-01-12T05:59:02.034Z,5.14
2019-01-12T06:01:30.817Z,5.14
2019-01-12T06:03:59.595Z,5.13
2019-01-12T06:06:28.334Z,5.10
2019-01-12T06:08:57.039Z,5.14
2019-01-12T06:11:25.751Z,5.14
2019-01-12T06:13:54.467Z,5.14
2019-01-12T06:16:23.187Z,5.12
2019-01-12T06:18:51.669Z,5.12
2019-01-12T06:21:20.440Z,5.10
2019-01-12T06:23:49.195Z,5.10
2019-01-12T06:26:17.997Z,5.10
2019-01-12T06:28:46.409Z,5.08
2019-01-12T06:31:14.917Z,5.08
2019-01-12T06:33:43.621Z,5.07
2019-01-12T06:36:12.467Z,5.06
2019-01-12T06:38:40.891Z,5.07
2019-01-12T06:41:09.682Z,5.04
2019-01-12T06:43:38.185Z,5.03
2019-01-12T06:46:06.617Z,5.01
2019-01-12T06:48:35.339Z,5.02
2019-01-12T06:51:04.124Z,5.02
2019-01-12T06:53:35.189Z,5.01
2019-01-12T06:56:10.689Z,5.00
2019-01-12T06:58:35.418Z,4.98
2019-01-12T07:01:04.165Z,4.98
2019-01-12T07:03:34.259Z,4.98
2019-01-12T07:06:02.742Z,4.98
2019-01-12T07:08:31.447Z,4.98
2019-01-12T07:10:59.878Z,4.99
2019-01-12T07:13:28.643Z,4.97
2019-01-12T07:15:57.081Z,4.96
2019-01-12T07:18:25.481Z,4.97
2019-01-12T07:20:54.194Z,4.96
2019-01-12T07:23:22.888Z,4.95
2019-01-12T07:25:51.584Z,4.96
2019-01-12T07:28:20.021Z,4.96
2019-01-12T07:30:48.705Z,4.98
2019-01-12T07:33:17.133Z,4.97
2019-01-12T07:35:45.822Z,4.95
2019-01-12T07:38:14.520Z,4.94
2019-01-12T07:40:43.199Z,4.93
2019-01-12T07:43:11.943Z,4.92
2019-01-12T07:45:40.673Z,4.91
2019-01-12T07:48:09.397Z,4.90
2019-01-12T07:50:38.097Z,4.91
2019-01-12T07:53:06.770Z,4.91
2019-01-12T07:55:35.467Z,4.87
2019-01-12T07:58:04.034Z,4.88
2019-01-12T08:00:32.734Z,4.87
2019-01-12T08:03:01.531Z,4.87
2019-01-12T08:05:30.283Z,4.86
2019-01-12T08:07:59.854Z,4.87
2019-01-12T08:10:28.257Z,4.88
2019-01-12T08:12:57.016Z,4.86
2019-01-12T08:15:25.800Z,4.88
2019-01-12T08:17:54.547Z,4.85
2019-01-12T08:20:23.404Z,4.88
2019-01-12T08:22:53.593Z,4.87
2019-01-12T08:25:22.618Z,4.88
2019-01-12T08:27:51.108Z,4.88
2019-01-12T08:30:19.982Z,4.89
2019-01-12T08:32:48.677Z,4.90
2019-01-12T08:35:17.280Z,4.89
2019-01-12T08:37:46.145Z,4.91
2019-01-12T08:40:14.980Z,4.92
2019-01-12T08:42:43.728Z,4.90
2019-01-12T08:45:13.815Z,4.90
2019-01-12T08:47:42.695Z,4.90
2019-01-12T08:50:14.431Z,4.90
2019-01-12T08:52:44.446Z,4.91
2019-01-12T08:55:13.362Z,4.91
2019-01-12T08:57:43.686Z,4.91
2019-01-12T09:00:17.520Z,4.93
2019-01-12T09:02:46.302Z,4.94
2019-01-12T09:05:14.782Z,4.93
2019-01-12T09:07:44.615Z,4.96
2019-01-12T09:10:15.800Z,4.97
2019-01-12T09:12:44.548Z,4.98
2019-01-12T09:15:13.474Z,4.97
2019-01-12T09:17:42.182Z,4.98
2019-01-12T09:20:13.428Z,4.99
2019-01-12T09:22:42.253Z,4.99
2019-01-12T09:25:11.291Z,5.00
2019-01-12T09:27:40.120Z,5.01
2019-01-12T09:30:14.467Z,5.02
2019-01-12T09:32:43.130Z,5.03
2019-01-12T09:35:11.626Z,5.05
2019-01-12T09:37:40.366Z,5.04
2019-01-12T09:40:12.421Z,5.05
2019-01-12T09:42:41.106Z,5.06
2019-01-12T09:45:11.958Z,5.06
2019-01-12T09:47:40.604Z,5.08
2019-01-12T09:50:12.202Z,5.12
2019-01-12T09:52:41.024Z,5.16
2019-01-12T09:55:09.863Z,5.17
2019-01-12T09:57:38.313Z,5.16
2019-01-12T10:00:15.117Z,5.18
2019-01-12T10:02:43.595Z,5.17
2019-01-12T10:05:12.747Z,5.17
2019-01-12T10:07:41.468Z,5.19
2019-01-12T10:10:13.369Z,5.20
2019-01-12T10:12:42.051Z,5.19
2019-01-12T10:15:11.582Z,5.20
2019-01-12T10:17:40.359Z,5.18
2019-01-12T10:20:12.360Z,5.19
2019-01-12T10:22:40.885Z,5.20
2019-01-12T10:25:10.636Z,5.22
2019-01-12T10:27:39.480Z,5.23
2019-01-12T10:30:14.260Z,5.24
2019-01-12T10:32:42.764Z,5.24
2019-01-12T10:35:11.589Z,5.22
2019-01-12T10:37:40.107Z,5.25
2019-01-12T10:40:11.920Z,5.30
2019-01-12T10:42:40.673Z,5.30
2019-01-12T10:45:12.800Z,5.30
2019-01-12T10:47:43.122Z,5.27
2019-01-12T10:50:15.054Z,5.24
2019-01-12T10:52:43.815Z,5.25
2019-01-12T10:55:12.383Z,5.24
2019-01-12T10:57:41.053Z,5.23
2019-01-12T11:00:15.873Z,5.23
2019-01-12T11:02:44.366Z,5.22
2019-01-12T11:05:13.320Z,5.20
2019-01-12T11:07:42.103Z,5.20
2019-01-12T11:10:13.150Z,5.22
2019-01-12T11:12:41.973Z,5.24
2019-01-12T11:15:18.786Z,5.26
2019-01-12T11:17:47.290Z,5.26
2019-01-12T11:20:16.139Z,5.24
2019-01-12T11:22:46.644Z,5.25
2019-01-12T11:25:15.927Z,5.28
2019-01-12T11:27:44.743Z,5.28
2019-01-12T11:30:19.011Z,5.26
2019-01-12T11:32:47.818Z,5.21
2019-01-12T11:35:16.582Z,5.19
2019-01-12T11:37:45.423Z,5.17
2019-01-12T11:40:19.246Z,5.13
2019-01-12T11:42:48.440Z,5.08
2019-01-12T11:45:17.284Z,5.06
2019-01-12T11:47:46.214Z,5.03
2019-01-12T11:50:16.755Z,5.01
2019-01-12T11:52:46.487Z,5.02
2019-01-12T11:55:17.251Z,5.02
2019-01-12T11:57:45.989Z,5.02
2019-01-12T12:00:23.343Z,5.02
2019-01-12T12:02:51.882Z,5.03
2019-01-12T12:05:20.561Z,5.05
2019-01-12T12:07:49.122Z,5.07
2019-01-12T12:10:19.360Z,5.06
2019-01-12T12:12:48.137Z,5.04
2019-01-12T12:15:19.190Z,5.06
2019-01-12T12:17:48.049Z,5.05
2019-01-12T12:20:21.813Z,5.05
2019-01-12T12:22:50.589Z,5.07
2019-01-12T12:25:19.250Z,5.07
2019-01-12T12:27:47.987Z,5.08
2019-01-12T12:30:27.817Z,5.08
2019-01-12T12:32:56.367Z,5.10
2019-01-12T12:35:25.200Z,5.09
2019-01-12T12:37:53.866Z,5.10
2019-01-12T12:40:24.215Z,5.13
2019-01-12T12:42:52.897Z,5.16
2019-01-12T12:45:25.066Z,5.15
2019-01-12T12:47:53.702Z,5.17
2019-01-12T12:50:22.401Z,5.16
2019-01-12T12:52:50.963Z,5.17
2019-01-12T12:55:20.079Z,5.18
2019-01-12T12:57:48.638Z,5.21
2019-01-12T13:00:20.060Z,5.20
2019-01-12T13:02:49.021Z,5.23
2019-01-12T13:05:17.788Z,5.26
2019-01-12T13:07:46.699Z,5.28
2019-01-12T13:10:25.251Z,5.29
2019-01-12T13:12:54.192Z,5.31
2019-01-12T13:15:23.531Z,5.34
2019-01-12T13:17:52.381Z,5.37
2019-01-12T13:20:21.313Z,5.38
2019-01-12T13:22:50.106Z,5.39
2019-01-12T13:25:19.023Z,5.39
2019-01-12T13:27:47.875Z,5.39
2019-01-12T13:30:19.188Z,5.40
2019-01-12T13:32:48.050Z,5.38
2019-01-12T13:35:16.900Z,5.37
2019-01-12T13:37:45.745Z,5.37
2019-01-12T13:40:21.658Z,5.38
2019-01-12T13:42:50.339Z,5.38
2019-01-12T13:45:20.564Z,5.40
2019-01-12T13:47:49.411Z,5.40
2019-01-12T13:50:20.758Z,5.40
2019-01-12T13:52:49.245Z,5.42
2019-01-12T13:55:17.909Z,5.42
2019-01-12T13:57:47.759Z,5.43
2019-01-12T14:00:28.632Z,5.44
2019-01-12T14:02:57.852Z,5.45
2019-01-12T14:05:26.618Z,5.48
2019-01-12T14:07:56.452Z,5.51
2019-01-12T14:10:27.121Z,5.52
2019-01-12T14:12:55.905Z,5.53
2019-01-12T14:15:24.807Z,5.56
2019-01-12T14:17:53.541Z,5.59
2019-01-12T14:20:28.250Z,5.60
2019-01-12T14:22:57.033Z,5.61
2019-01-12T14:25:27.143Z,5.62
2019-01-12T14:27:55.858Z,5.63
2019-01-12T14:30:24.951Z,5.67
2019-01-12T14:32:53.380Z,5.67
2019-01-12T14:35:22.235Z,5.66
2019-01-12T14:37:51.376Z,5.68
2019-01-12T14:40:21.599Z,5.68
2019-01-12T14:42:50.155Z,5.68
2019-01-12T14:45:24.156Z,5.70
2019-01-12T14:47:52.657Z,5.72
2019-01-12T14:50:21.147Z,5.74
2019-01-12T14:52:50.115Z,5.76
2019-01-12T14:55:20.833Z,5.75
2019-01-12T14:57:49.679Z,5.76
2019-01-12T15:00:20.637Z,5.76
2019-01-12T15:02:49.502Z,5.78
2019-01-12T15:05:20.312Z,5.80
2019-01-12T15:07:48.799Z,5.79
2019-01-12T15:10:20.710Z,5.79
2019-01-12T15:12:50.461Z,5.80
2019-01-12T15:15:19.699Z,5.81
2019-01-12T15:17:48.364Z,5.80
2019-01-12T15:20:19.037Z,5.81
2019-01-12T15:22:47.841Z,5.83
2019-01-12T15:25:16.509Z,5.85
2019-01-12T15:27:44.996Z,5.86
2019-01-12T15:30:16.584Z,5.87
2019-01-12T15:32:45.028Z,5.88
2019-01-12T15:35:14.523Z,5.88
2019-01-12T15:37:43.540Z,5.89
2019-01-12T15:40:15.449Z,5.89
2019-01-12T15:42:44.115Z,5.89
2019-01-12T15:45:21.065Z,5.87
2019-01-12T15:47:49.973Z,5.89
2019-01-12T15:50:20.819Z,5.93
2019-01-12T15:52:49.372Z,5.91
2019-01-12T15:55:19.783Z,5.92
2019-01-12T15:57:48.553Z,5.94
2019-01-12T16:00:25.287Z,5.94
2019-01-12T16:02:54.054Z,5.95
2019-01-12T16:05:22.894Z,5.97
2019-01-12T16:07:51.724Z,5.97
2019-01-12T16:10:20.744Z,5.98
2019-01-12T16:12:49.303Z,6.01
2019-01-12T16:15:20.079Z,6.02
2019-01-12T16:17:51.210Z,6.03
2019-01-12T16:20:22.096Z,6.03
2019-01-12T16:22:50.560Z,6.01
2019-01-12T16:25:20.431Z,6.06
2019-01-12T16:27:48.962Z,6.13
2019-01-12T16:30:21.483Z,6.15
2019-01-12T16:32:50.257Z,6.14
2019-01-12T16:35:19.140Z,6.16
2019-01-12T16:37:47.681Z,6.16
2019-01-12T16:40:21.835Z,6.22
2019-01-12T16:42:50.603Z,6.20
2019-01-12T16:45:19.632Z,6.22
2019-01-12T16:47:48.370Z,6.20
2019-01-12T16:50:16.962Z,6.23
2019-01-12T16:52:45.477Z,6.26
2019-01-12T16:55:15.936Z,6.27
2019-01-12T16:57:44.913Z,6.27
2019-01-12T17:00:16.857Z,6.28
2019-01-12T17:02:46.029Z,6.28
2019-01-12T17:05:14.809Z,6.29
2019-01-12T17:07:43.494Z,6.30
2019-01-12T17:10:14.641Z,6.30
2019-01-12T17:12:43.402Z,6.29
2019-01-12T17:15:14.523Z,6.28
2019-01-12T17:17:43.085Z,6.29
2019-01-12T17:20:15.229Z,6.28
2019-01-12T17:22:44.576Z,6.27
2019-01-12T17:25:13.533Z,6.26
2019-01-12T17:27:42.237Z,6.24
2019-01-12T17:30:22.328Z,6.21
2019-01-12T17:32:51.180Z,6.18
2019-01-12T17:35:19.898Z,6.18
2019-01-12T17:37:48.829Z,6.17
2019-01-12T17:40:18.173Z,6.18
2019-01-12T17:42:47.008Z,6.10
2019-01-12T17:45:23.926Z,6.20
2019-01-12T17:47:52.497Z,6.22
2019-01-12T17:50:23.038Z,6.21
2019-01-12T17:52:51.888Z,6.21
2019-01-12T17:55:22.571Z,6.23
2019-01-12T17:57:51.367Z,6.24
2019-01-12T18:00:23.843Z,6.21
2019-01-12T18:02:52.718Z,6.22
2019-01-12T18:05:21.423Z,6.23
2019-01-12T18:07:50.003Z,6.24
2019-01-12T18:10:18.474Z,6.24
2019-01-12T18:12:47.199Z,6.24
2019-01-12T18:15:16.565Z,6.28
2019-01-12T18:17:45.069Z,6.29
2019-01-12T18:20:18.043Z,6.25
2019-01-12T18:22:46.811Z,6.25
2019-01-12T18:25:16.892Z,6.28
2019-01-12T18:27:45.858Z,6.28
2019-01-12T18:30:19.535Z,6.27
2019-01-12T18:32:48.079Z,6.27
2019-01-12T18:35:16.638Z,6.25
2019-01-12T18:37:45.493Z,6.27
2019-01-12T18:40:19.037Z,6.27
2019-01-12T18:42:47.863Z,6.28
2019-01-12T18:45:20.638Z,6.28
2019-01-12T18:47:49.441Z,6.28
2019-01-12T18:50:21.021Z,6.29
2019-01-12T18:52:50.753Z,6.30
2019-01-12T18:55:19.198Z,6.26
2019-01-12T18:57:47.669Z,6.25
2019-01-12T19:00:21.459Z,6.23
2019-01-12T19:02:50.215Z,6.23
2019-01-12T19:05:18.964Z,6.23
2019-01-12T19:07:47.725Z,6.21
2019-01-12T19:10:16.531Z,6.23
2019-01-12T19:12:45.445Z,6.25
2019-01-12T19:15:17.147Z,6.27
2019-01-12T19:17:45.726Z,6.28
2019-01-12T19:20:14.696Z,6.30
2019-01-12T19:22:43.521Z,6.28
2019-01-12T19:25:14.017Z,6.24
2019-01-12T19:27:42.784Z,6.23
2019-01-12T19:30:22.458Z,6.22
2019-01-12T19:32:51.277Z,6.20
2019-01-12T19:35:20.095Z,6.22
2019-01-12T19:37:48.674Z,6.23
2019-01-12T19:40:19.538Z,6.24
2019-01-12T19:42:48.330Z,6.20
2019-01-12T19:45:17.243Z,6.18
2019-01-12T19:47:46.088Z,6.18
2019-01-12T19:50:17.428Z,6.20
2019-01-12T19:52:46.280Z,6.18
2019-01-12T19:55:14.965Z,6.19
2019-01-12T19:57:43.747Z,6.21
2019-01-12T20:00:21.160Z,6.22
2019-01-12T20:02:51.557Z,6.19
2019-01-12T20:05:22.305Z,6.15
2019-01-12T20:07:51.055Z,6.14
2019-01-12T20:10:20.000Z,6.15
2019-01-12T20:12:48.629Z,6.15
2019-01-12T20:15:19.796Z,6.13
2019-01-12T20:17:48.571Z,6.14
2019-01-12T20:20:17.841Z,6.14
2019-01-12T20:22:46.603Z,6.19
2019-01-12T20:25:20.932Z,6.22
2019-01-12T20:27:49.368Z,6.24
2019-01-12T20:30:29.721Z,6.26
2019-01-12T20:33:29.878Z,6.24
2019-01-12T20:36:13.814Z,6.23
2019-01-12T20:38:54.492Z,6.28
2019-01-12T20:41:38.240Z,6.24
2019-01-12T20:44:24.742Z,6.26
2019-01-12T20:47:11.325Z,6.23
2019-01-12T20:49:42.755Z,6.22
2019-01-12T20:52:17.397Z,6.27
2019-01-12T20:54:52.108Z,6.28
2019-01-12T20:57:47.899Z,6.25
2019-01-12T21:00:40.934Z,6.24
2019-01-12T21:03:12.425Z,6.29
2019-01-12T21:05:44.174Z,6.29
2019-01-12T21:08:30.530Z,6.30
2019-01-12T21:11:02.280Z,6.30
2019-01-12T21:14:03.137Z,6.28
2019-01-12T21:16:33.646Z,6.24
2019-01-12T21:19:02.220Z,6.24
2019-01-12T21:21:30.730Z,6.27
2019-01-12T21:23:59.441Z,6.26
2019-01-12T21:26:28.124Z,6.26
2019-01-12T21:28:56.651Z,6.24
2019-01-12T21:31:25.426Z,6.22
2019-01-12T21:33:54.144Z,6.21
2019-01-12T21:36:23.016Z,6.21
2019-01-12T21:38:51.675Z,6.20
2019-01-12T21:41:20.344Z,6.23
2019-01-12T21:43:49.057Z,6.24
2019-01-12T21:46:17.483Z,6.26
2019-01-12T21:48:45.892Z,6.25
2019-01-12T21:51:14.659Z,6.26
2019-01-12T21:53:43.504Z,6.24
2019-01-12T21:56:13.767Z,6.22
2019-01-12T21:58:42.555Z,6.21
2019-01-12T22:01:12.183Z,6.17
2019-01-12T22:03:42.518Z,6.19
2019-01-12T22:06:11.309Z,6.17
2019-01-12T22:08:40.086Z,6.18
2019-01-12T22:11:08.999Z,6.18
2019-01-12T22:13:37.754Z,6.20
2019-01-12T22:16:06.549Z,6.18
2019-01-12T22:18:35.331Z,6.17
2019-01-12T22:21:03.915Z,6.18
2019-01-12T22:23:33.952Z,6.17
2019-01-12T22:26:02.702Z,6.17
2019-01-12T22:28:31.109Z,6.19
2019-01-12T22:30:59.521Z,5.37
2019-01-12T22:33:28.379Z,6.24
2019-01-12T22:35:57.173Z,6.22
2019-01-12T22:38:25.865Z,6.21
2019-01-12T22:40:54.295Z,6.23
2019-01-12T22:43:22.732Z,6.24
2019-01-12T22:45:51.435Z,6.24
2019-01-12T22:48:19.859Z,6.24
2019-01-12T22:50:48.870Z,6.26
2019-01-12T22:53:17.609Z,6.32
2019-01-12T22:55:46.288Z,6.33
2019-01-12T22:58:15.063Z,6.36
2019-01-12T23:00:53.957Z,6.39
2019-01-12T23:03:22.743Z,6.38
2019-01-12T23:05:51.502Z,6.35
2019-01-12T23:08:20.277Z,6.34
2019-01-12T23:10:48.775Z,6.36
2019-01-12T23:13:17.606Z,6.37
2019-01-12T23:15:46.457Z,6.39
2019-01-12T23:18:15.241Z,6.37
2019-01-12T23:20:43.805Z,6.37
2019-01-12T23:23:12.738Z,6.36
2019-01-12T23:25:41.569Z,6.37
2019-01-12T23:28:10.051Z,6.38
2019-01-12T23:30:38.950Z,6.34
2019-01-12T23:33:07.727Z,6.33
2019-01-12T23:35:36.495Z,6.33
2019-01-12T23:38:05.759Z,6.38
2019-01-12T23:40:34.514Z,6.41
2019-01-12T23:43:03.384Z,6.40
2019-01-12T23:45:32.189Z,6.39
2019-01-12T23:48:00.593Z,6.40
2019-01-12T23:50:29.267Z,6.38
2019-01-12T23:52:58.012Z,6.39
2019-01-12T23:55:26.705Z,6.46
2019-01-12T23:57:55.438Z,6.44
